sensor_id;sensor_type;location;lat;lon;timestamp;P1;durP1;ratioP1;P2;durP2;ratioP2
77748;SDS011;66938;52.084;5.228;2023-04-19T00:00:26;10.9;;;9.9;;
77748;SDS011;66938;52.084;5.228;2023-04-19T00:03:38;10.5;;;9.6;;
77748;SDS011;66938;52.084;5.228;2023-04-19T00:05:14;11.0;;;10.0;;
77748;SDS011;66938;52.084;5.228;2023-04-19T00:06:50;10.7;;;9.81;;
77748;SDS011;66938;52.084;5.228;2023-04-19T00:10:04;11.4;;;10.3;;
77748;SDS011;66938;52.084;5.228;2023-04-19T00:11:42;11.3;;;10.3;;
77748;SDS011;66938;52.084;5.228;2023-04-19T00:13:18;11.2;;;10.21;;
77748;SDS011;66938;52.084;5.228;2023-04-19T00:14:54;11.2;;;10.21;;
77748;SDS011;66938;52.084;5.228;2023-04-19T00:18:06;12.0;;;10.9;;
77748;SDS011;66938;52.084;5.228;2023-04-19T00:19:42;12.5;;;11.3;;
77748;SDS011;66938;52.084;5.228;2023-04-19T00:21:19;11.4;;;10.4;;
77748;SDS011;66938;52.084;5.228;2023-04-19T00:24:31;12.6;;;11.5;;
77748;SDS011;66938;52.084;5.228;2023-04-19T00:26:07;12.1;;;11.0;;
77748;SDS011;66938;52.084;5.228;2023-04-19T00:27:43;13.0;;;11.7;;
77748;SDS011;66938;52.084;5.228;2023-04-19T00:30:56;12.2;;;11.1;;
77748;SDS011;66938;52.084;5.228;2023-04-19T00:34:09;12.5;;;11.4;;
77748;SDS011;66938;52.084;5.228;2023-04-19T00:35:45;12.4;;;11.3;;
77748;SDS011;66938;52.084;5.228;2023-04-19T00:38:58;12.7;;;11.4;;
77748;SDS011;66938;52.084;5.228;2023-04-19T00:40:34;12.2;;;11.2;;
77748;SDS011;66938;52.084;5.228;2023-04-19T00:42:11;12.4;;;11.3;;
77748;SDS011;66938;52.084;5.228;2023-04-19T00:45:24;12.8;;;11.7;;
77748;SDS011;66938;52.084;5.228;2023-04-19T00:47:00;12.3;;;11.2;;
77748;SDS011;66938;52.084;5.228;2023-04-19T00:48:37;13.1;;;11.9;;
77748;SDS011;66938;52.084;5.228;2023-04-19T00:51:49;13.3;;;12.1;;
77748;SDS011;66938;52.084;5.228;2023-04-19T00:53:26;13.4;;;12.2;;
77748;SDS011;66938;52.084;5.228;2023-04-19T00:55:02;13.0;;;11.7;;
77748;SDS011;66938;52.084;5.228;2023-04-19T00:58:16;13.4;;;12.1;;
77748;SDS011;66938;52.084;5.228;2023-04-19T00:59:51;13.5;;;12.3;;
77748;SDS011;66938;52.084;5.228;2023-04-19T01:01:30;13.5;;;12.4;;
77748;SDS011;66938;52.084;5.228;2023-04-19T01:03:06;12.7;;;11.7;;
77748;SDS011;66938;52.084;5.228;2023-04-19T01:06:18;13.3;;;12.1;;
77748;SDS011;66938;52.084;5.228;2023-04-19T01:07:54;13.7;;;12.5;;
77748;SDS011;66938;52.084;5.228;2023-04-19T01:09:30;13.6;;;12.5;;
77748;SDS011;66938;52.084;5.228;2023-04-19T01:12:42;13.4;;;12.2;;
77748;SDS011;66938;52.084;5.228;2023-04-19T01:14:18;13.8;;;12.6;;
77748;SDS011;66938;52.084;5.228;2023-04-19T01:15:55;13.3;;;12.2;;
77748;SDS011;66938;52.084;5.228;2023-04-19T01:19:09;13.9;;;12.7;;
77748;SDS011;66938;52.084;5.228;2023-04-19T01:20:45;13.8;;;12.6;;
77748;SDS011;66938;52.084;5.228;2023-04-19T01:22:21;14.1;;;12.9;;
77748;SDS011;66938;52.084;5.228;2023-04-19T01:23:57;14.6;;;13.3;;
77748;SDS011;66938;52.084;5.228;2023-04-19T01:27:10;13.6;;;12.4;;
77748;SDS011;66938;52.084;5.228;2023-04-19T01:28:46;14.7;;;13.3;;
77748;SDS011;66938;52.084;5.228;2023-04-19T01:30:23;15.0;;;13.6;;
77748;SDS011;66938;52.084;5.228;2023-04-19T01:33:36;14.0;;;12.8;;
77748;SDS011;66938;52.084;5.228;2023-04-19T01:35:12;14.1;;;12.9;;
77748;SDS011;66938;52.084;5.228;2023-04-19T01:36:48;14.1;;;12.9;;
77748;SDS011;66938;52.084;5.228;2023-04-19T01:40:01;13.7;;;12.6;;
77748;SDS011;66938;52.084;5.228;2023-04-19T01:41:37;14.1;;;12.9;;
77748;SDS011;66938;52.084;5.228;2023-04-19T01:43:15;14.8;;;13.5;;
77748;SDS011;66938;52.084;5.228;2023-04-19T01:44:52;13.4;;;12.2;;
77748;SDS011;66938;52.084;5.228;2023-04-19T01:48:04;13.9;;;12.7;;
77748;SDS011;66938;52.084;5.228;2023-04-19T01:49:41;14.1;;;12.9;;
77748;SDS011;66938;52.084;5.228;2023-04-19T01:51:17;14.1;;;12.9;;
77748;SDS011;66938;52.084;5.228;2023-04-19T01:54:30;14.1;;;12.8;;
77748;SDS011;66938;52.084;5.228;2023-04-19T01:56:06;14.5;;;13.2;;
77748;SDS011;66938;52.084;5.228;2023-04-19T01:57:42;14.2;;;13.0;;
77748;SDS011;66938;52.084;5.228;2023-04-19T02:00:55;14.3;;;13.0;;
77748;SDS011;66938;52.084;5.228;2023-04-19T02:02:31;14.5;;;13.3;;
77748;SDS011;66938;52.084;5.228;2023-04-19T02:04:07;14.7;;;13.4;;
77748;SDS011;66938;52.084;5.228;2023-04-19T02:05:45;14.5;;;13.3;;
77748;SDS011;66938;52.084;5.228;2023-04-19T02:08:57;14.0;;;12.7;;
77748;SDS011;66938;52.084;5.228;2023-04-19T02:10:33;14.5;;;13.2;;
77748;SDS011;66938;52.084;5.228;2023-04-19T02:12:09;14.2;;;13.0;;
77748;SDS011;66938;52.084;5.228;2023-04-19T02:15:22;13.6;;;12.5;;
77748;SDS011;66938;52.084;5.228;2023-04-19T02:16:58;14.4;;;13.2;;
77748;SDS011;66938;52.084;5.228;2023-04-19T02:18:34;14.0;;;12.8;;
77748;SDS011;66938;52.084;5.228;2023-04-19T02:21:46;13.9;;;12.7;;
77748;SDS011;66938;52.084;5.228;2023-04-19T02:23:23;14.9;;;13.5;;
77748;SDS011;66938;52.084;5.228;2023-04-19T02:24:59;14.6;;;13.4;;
77748;SDS011;66938;52.084;5.228;2023-04-19T02:28:12;14.8;;;13.5;;
77748;SDS011;66938;52.084;5.228;2023-04-19T02:29:48;13.9;;;12.7;;
77748;SDS011;66938;52.084;5.228;2023-04-19T02:31:24;13.8;;;12.7;;
77748;SDS011;66938;52.084;5.228;2023-04-19T02:33:00;14.8;;;13.5;;
77748;SDS011;66938;52.084;5.228;2023-04-19T02:36:12;14.9;;;13.6;;
77748;SDS011;66938;52.084;5.228;2023-04-19T02:37:48;14.1;;;12.9;;
77748;SDS011;66938;52.084;5.228;2023-04-19T02:39:24;14.4;;;13.1;;
77748;SDS011;66938;52.084;5.228;2023-04-19T02:42:38;15.4;;;13.8;;
77748;SDS011;66938;52.084;5.228;2023-04-19T02:44:14;14.8;;;13.5;;
77748;SDS011;66938;52.084;5.228;2023-04-19T02:45:50;13.8;;;12.6;;
77748;SDS011;66938;52.084;5.228;2023-04-19T02:49:02;14.3;;;12.9;;
77748;SDS011;66938;52.084;5.228;2023-04-19T02:50:38;14.6;;;13.2;;
77748;SDS011;66938;52.084;5.228;2023-04-19T02:52:15;14.5;;;13.2;;
77748;SDS011;66938;52.084;5.228;2023-04-19T02:53:51;14.2;;;12.9;;
77748;SDS011;66938;52.084;5.228;2023-04-19T02:57:03;14.0;;;12.8;;
77748;SDS011;66938;52.084;5.228;2023-04-19T02:58:39;14.0;;;12.6;;
77748;SDS011;66938;52.084;5.228;2023-04-19T03:00:16;14.1;;;12.8;;
77748;SDS011;66938;52.084;5.228;2023-04-19T03:03:28;14.7;;;13.5;;
77748;SDS011;66938;52.084;5.228;2023-04-19T03:05:05;14.4;;;13.1;;
77748;SDS011;66938;52.084;5.228;2023-04-19T03:06:42;14.3;;;13.0;;
77748;SDS011;66938;52.084;5.228;2023-04-19T03:09:54;15.1;;;13.6;;
77748;SDS011;66938;52.084;5.228;2023-04-19T03:11:30;14.5;;;13.2;;
77748;SDS011;66938;52.084;5.228;2023-04-19T03:13:06;14.5;;;13.1;;
77748;SDS011;66938;52.084;5.228;2023-04-19T03:16:18;14.5;;;13.2;;
77748;SDS011;66938;52.084;5.228;2023-04-19T03:17:54;14.1;;;12.8;;
77748;SDS011;66938;52.084;5.228;2023-04-19T03:19:31;14.0;;;12.7;;
77748;SDS011;66938;52.084;5.228;2023-04-19T03:21:07;13.9;;;12.6;;
77748;SDS011;66938;52.084;5.228;2023-04-19T03:24:19;13.7;;;12.5;;
77748;SDS011;66938;52.084;5.228;2023-04-19T03:26:02;14.0;;;12.7;;
77748;SDS011;66938;52.084;5.228;2023-04-19T03:27:39;13.8;;;12.6;;
77748;SDS011;66938;52.084;5.228;2023-04-19T03:30:51;13.6;;;12.3;;
77748;SDS011;66938;52.084;5.228;2023-04-19T03:32:27;14.0;;;12.6;;
77748;SDS011;66938;52.084;5.228;2023-04-19T03:34:04;13.5;;;12.2;;
77748;SDS011;66938;52.084;5.228;2023-04-19T03:35:40;13.7;;;12.5;;
77748;SDS011;66938;52.084;5.228;2023-04-19T03:38:52;13.5;;;12.3;;
77748;SDS011;66938;52.084;5.228;2023-04-19T03:40:29;13.6;;;12.3;;
77748;SDS011;66938;52.084;5.228;2023-04-19T03:42:05;12.9;;;11.8;;
77748;SDS011;66938;52.084;5.228;2023-04-19T03:45:18;13.6;;;12.4;;
77748;SDS011;66938;52.084;5.228;2023-04-19T03:46:53;13.5;;;12.3;;
77748;SDS011;66938;52.084;5.228;2023-04-19T03:48:30;13.2;;;12.1;;
77748;SDS011;66938;52.084;5.228;2023-04-19T03:51:43;13.3;;;12.2;;
77748;SDS011;66938;52.084;5.228;2023-04-19T03:53:19;12.8;;;11.7;;
77748;SDS011;66938;52.084;5.228;2023-04-19T03:54:55;13.4;;;12.2;;
77748;SDS011;66938;52.084;5.228;2023-04-19T03:58:07;14.3;;;13.0;;
77748;SDS011;66938;52.084;5.228;2023-04-19T03:59:43;13.0;;;11.8;;
77748;SDS011;66938;52.084;5.228;2023-04-19T04:01:20;13.6;;;12.4;;
77748;SDS011;66938;52.084;5.228;2023-04-19T04:02:57;12.8;;;11.6;;
77748;SDS011;66938;52.084;5.228;2023-04-19T04:06:09;12.8;;;11.5;;
77748;SDS011;66938;52.084;5.228;2023-04-19T04:07:45;13.2;;;12.0;;
77748;SDS011;66938;52.084;5.228;2023-04-19T04:09:21;12.7;;;11.5;;
77748;SDS011;66938;52.084;5.228;2023-04-19T04:12:33;13.1;;;11.8;;
77748;SDS011;66938;52.084;5.228;2023-04-19T04:14:09;12.6;;;11.5;;
77748;SDS011;66938;52.084;5.228;2023-04-19T04:15:46;12.3;;;11.3;;
77748;SDS011;66938;52.084;5.228;2023-04-19T04:18:58;12.0;;;11.0;;
77748;SDS011;66938;52.084;5.228;2023-04-19T04:20:34;11.8;;;10.7;;
77748;SDS011;66938;52.084;5.228;2023-04-19T04:22:10;11.9;;;10.9;;
77748;SDS011;66938;52.084;5.228;2023-04-19T04:23:46;12.1;;;10.9;;
77748;SDS011;66938;52.084;5.228;2023-04-19T04:26:58;11.6;;;10.5;;
77748;SDS011;66938;52.084;5.228;2023-04-19T04:28:35;11.8;;;10.7;;
77748;SDS011;66938;52.084;5.228;2023-04-19T04:30:11;11.2;;;10.21;;
77748;SDS011;66938;52.084;5.228;2023-04-19T04:33:23;11.5;;;10.4;;
77748;SDS011;66938;52.084;5.228;2023-04-19T04:35:00;11.8;;;10.7;;
77748;SDS011;66938;52.084;5.228;2023-04-19T04:36:36;12.3;;;11.1;;
77748;SDS011;66938;52.084;5.228;2023-04-19T04:39:47;11.6;;;10.6;;
77748;SDS011;66938;52.084;5.228;2023-04-19T04:41:22;11.3;;;10.21;;
77748;SDS011;66938;52.084;5.228;2023-04-19T04:42:58;12.4;;;11.1;;
77748;SDS011;66938;52.084;5.228;2023-04-19T04:46:09;11.7;;;10.7;;
77748;SDS011;66938;52.084;5.228;2023-04-19T04:47:45;11.6;;;10.6;;
77748;SDS011;66938;52.084;5.228;2023-04-19T04:49:22;11.9;;;10.8;;
77748;SDS011;66938;52.084;5.228;2023-04-19T04:50:58;11.4;;;10.3;;
77748;SDS011;66938;52.084;5.228;2023-04-19T04:54:09;11.8;;;10.8;;
77748;SDS011;66938;52.084;5.228;2023-04-19T04:55:44;11.9;;;10.7;;
77748;SDS011;66938;52.084;5.228;2023-04-19T04:57:20;10.9;;;9.9;;
77748;SDS011;66938;52.084;5.228;2023-04-19T05:00:32;11.7;;;10.6;;
77748;SDS011;66938;52.084;5.228;2023-04-19T05:02:08;11.9;;;10.8;;
77748;SDS011;66938;52.084;5.228;2023-04-19T05:03:44;11.7;;;10.5;;
77748;SDS011;66938;52.084;5.228;2023-04-19T05:06:55;12.1;;;11.0;;
77748;SDS011;66938;52.084;5.228;2023-04-19T05:08:31;11.6;;;10.6;;
77748;SDS011;66938;52.084;5.228;2023-04-19T05:10:07;11.3;;;10.3;;
77748;SDS011;66938;52.084;5.228;2023-04-19T05:13:20;11.5;;;10.4;;
77748;SDS011;66938;52.084;5.228;2023-04-19T05:14:56;11.4;;;10.3;;
77748;SDS011;66938;52.084;5.228;2023-04-19T05:16:32;11.2;;;10.21;;
77748;SDS011;66938;52.084;5.228;2023-04-19T05:19:44;11.7;;;10.6;;
77748;SDS011;66938;52.084;5.228;2023-04-19T05:21:20;12.0;;;10.9;;
77748;SDS011;66938;52.084;5.228;2023-04-19T05:22:56;11.7;;;10.5;;
77748;SDS011;66938;52.084;5.228;2023-04-19T05:24:33;11.2;;;10.21;;
77748;SDS011;66938;52.084;5.228;2023-04-19T05:27:46;11.0;;;10.0;;
77748;SDS011;66938;52.084;5.228;2023-04-19T05:29:22;11.2;;;10.1;;
77748;SDS011;66938;52.084;5.228;2023-04-19T05:30:58;10.9;;;9.9;;
77748;SDS011;66938;52.084;5.228;2023-04-19T05:34:10;11.2;;;10.1;;
77748;SDS011;66938;52.084;5.228;2023-04-19T05:35:46;10.6;;;9.71;;
77748;SDS011;66938;52.084;5.228;2023-04-19T05:37:22;11.1;;;10.1;;
77748;SDS011;66938;52.084;5.228;2023-04-19T05:40:35;9.9;;;9.1;;
77748;SDS011;66938;52.084;5.228;2023-04-19T05:42:11;10.6;;;9.6;;
77748;SDS011;66938;52.084;5.228;2023-04-19T05:43:47;10.6;;;9.6;;
77748;SDS011;66938;52.084;5.228;2023-04-19T05:45:24;10.5;;;9.4;;
77748;SDS011;66938;52.084;5.228;2023-04-19T05:48:37;10.21;;;9.31;;
77748;SDS011;66938;52.084;5.228;2023-04-19T05:50:13;9.81;;;8.9;;
77748;SDS011;66938;52.084;5.228;2023-04-19T05:51:49;10.6;;;9.0;;
77748;SDS011;66938;52.084;5.228;2023-04-19T05:55:03;10.3;;;9.4;;
77748;SDS011;66938;52.084;5.228;2023-04-19T05:56:40;9.81;;;8.9;;
77748;SDS011;66938;52.084;5.228;2023-04-19T05:58:17;9.9;;;9.0;;
77748;SDS011;66938;52.084;5.228;2023-04-19T06:01:29;9.71;;;8.81;;
77748;SDS011;66938;52.084;5.228;2023-04-19T06:03:07;9.6;;;8.71;;
77748;SDS011;66938;52.084;5.228;2023-04-19T06:04:44;10.0;;;9.0;;
77748;SDS011;66938;52.084;5.228;2023-04-19T06:06:21;10.21;;;9.21;;
77748;SDS011;66938;52.084;5.228;2023-04-19T06:09:34;9.21;;;8.31;;
77748;SDS011;66938;52.084;5.228;2023-04-19T06:11:10;9.81;;;8.81;;
77748;SDS011;66938;52.084;5.228;2023-04-19T06:12:46;8.81;;;8.0;;
77748;SDS011;66938;52.084;5.228;2023-04-19T06:16:00;9.71;;;8.71;;
77748;SDS011;66938;52.084;5.228;2023-04-19T06:17:37;9.81;;;8.81;;
77748;SDS011;66938;52.084;5.228;2023-04-19T06:19:13;9.6;;;7.9;;
77748;SDS011;66938;52.084;5.228;2023-04-19T06:22:27;8.81;;;7.9;;
77748;SDS011;66938;52.084;5.228;2023-04-19T06:24:05;9.5;;;8.5;;
77748;SDS011;66938;52.084;5.228;2023-04-19T06:25:41;8.71;;;7.8;;
77748;SDS011;66938;52.084;5.228;2023-04-19T06:27:17;8.6;;;7.7;;
77748;SDS011;66938;52.084;5.228;2023-04-19T06:30:30;9.0;;;8.1;;
77748;SDS011;66938;52.084;5.228;2023-04-19T06:32:05;8.31;;;7.5;;
77748;SDS011;66938;52.084;5.228;2023-04-19T06:33:42;8.9;;;8.0;;
77748;SDS011;66938;52.084;5.228;2023-04-19T06:36:54;8.71;;;7.8;;
77748;SDS011;66938;52.084;5.228;2023-04-19T06:38:30;8.1;;;7.3;;
77748;SDS011;66938;52.084;5.228;2023-04-19T06:43:20;8.31;;;7.5;;
77748;SDS011;66938;52.084;5.228;2023-04-19T06:44:56;16.2;;;7.5;;
77748;SDS011;66938;52.084;5.228;2023-04-19T06:46:32;16.2;;;7.5;;
77748;SDS011;66938;52.084;5.228;2023-04-19T06:48:08;7.8;;;7.1;;
77748;SDS011;66938;52.084;5.228;2023-04-19T06:51:21;8.2;;;7.0;;
77748;SDS011;66938;52.084;5.228;2023-04-19T06:52:57;7.4;;;6.6;;
77748;SDS011;66938;52.084;5.228;2023-04-19T06:54:33;7.6;;;6.8;;
77748;SDS011;66938;52.084;5.228;2023-04-19T06:57:45;7.3;;;6.6;;
77748;SDS011;66938;52.084;5.228;2023-04-19T06:59:21;7.8;;;6.4;;
77748;SDS011;66938;52.084;5.228;2023-04-19T07:00:58;7.2;;;6.5;;
77748;SDS011;66938;52.084;5.228;2023-04-19T07:04:11;7.2;;;6.1;;
77748;SDS011;66938;52.084;5.228;2023-04-19T07:05:48;8.31;;;6.1;;
77748;SDS011;66938;52.084;5.228;2023-04-19T07:07:24;7.1;;;5.7;;
77748;SDS011;66938;52.084;5.228;2023-04-19T07:10:37;6.9;;;5.8;;
77748;SDS011;66938;52.084;5.228;2023-04-19T07:12:13;7.9;;;5.7;;
77748;SDS011;66938;52.084;5.228;2023-04-19T07:13:50;6.8;;;5.7;;
77748;SDS011;66938;52.084;5.228;2023-04-19T07:15:26;6.9;;;5.2;;
77748;SDS011;66938;52.084;5.228;2023-04-19T07:18:39;5.8;;;5.0;;
77748;SDS011;66938;52.084;5.228;2023-04-19T07:20:15;5.8;;;5.0;;
77748;SDS011;66938;52.084;5.228;2023-04-19T07:21:51;7.3;;;5.0;;
77748;SDS011;66938;52.084;5.228;2023-04-19T07:25:04;6.7;;;5.2;;
77748;SDS011;66938;52.084;5.228;2023-04-19T07:26:40;7.2;;;5.11;;
77748;SDS011;66938;52.084;5.228;2023-04-19T07:28:17;6.7;;;5.0;;
77748;SDS011;66938;52.084;5.228;2023-04-19T07:31:29;5.9;;;4.8;;
77748;SDS011;66938;52.084;5.228;2023-04-19T07:33:06;6.4;;;5.0;;
77748;SDS011;66938;52.084;5.228;2023-04-19T07:34:42;7.0;;;5.0;;
77748;SDS011;66938;52.084;5.228;2023-04-19T07:36:18;7.6;;;4.61;;
77748;SDS011;66938;52.084;5.228;2023-04-19T07:39:31;5.9;;;4.2;;
77748;SDS011;66938;52.084;5.228;2023-04-19T07:41:07;7.2;;;4.7;;
77748;SDS011;66938;52.084;5.228;2023-04-19T07:42:43;5.9;;;4.8;;
77748;SDS011;66938;52.084;5.228;2023-04-19T07:45:55;6.2;;;4.7;;
77748;SDS011;66938;52.084;5.228;2023-04-19T07:47:31;8.0;;;4.3;;
77748;SDS011;66938;52.084;5.228;2023-04-19T07:49:07;7.0;;;4.5;;
77748;SDS011;66938;52.084;5.228;2023-04-19T07:52:19;7.8;;;4.61;;
77748;SDS011;66938;52.084;5.228;2023-04-19T07:53:55;5.0;;;4.1;;
77748;SDS011;66938;52.084;5.228;2023-04-19T07:55:32;4.7;;;4.0;;
77748;SDS011;66938;52.084;5.228;2023-04-19T07:57:08;5.6;;;4.41;;
77748;SDS011;66938;52.084;5.228;2023-04-19T08:00:20;5.7;;;3.6;;
77748;SDS011;66938;52.084;5.228;2023-04-19T08:01:56;5.3;;;4.0;;
77748;SDS011;66938;52.084;5.228;2023-04-19T08:03:32;5.9;;;4.2;;
77748;SDS011;66938;52.084;5.228;2023-04-19T08:06:46;5.4;;;3.9;;
77748;SDS011;66938;52.084;5.228;2023-04-19T08:08:23;6.5;;;3.9;;
77748;SDS011;66938;52.084;5.228;2023-04-19T08:09:59;4.91;;;4.1;;
77748;SDS011;66938;52.084;5.228;2023-04-19T08:13:11;5.6;;;4.3;;
77748;SDS011;66938;52.084;5.228;2023-04-19T08:14:47;6.9;;;4.3;;
77748;SDS011;66938;52.084;5.228;2023-04-19T08:16:23;6.2;;;4.41;;
77748;SDS011;66938;52.084;5.228;2023-04-19T08:19:35;6.3;;;3.8;;
77748;SDS011;66938;52.084;5.228;2023-04-19T08:21:12;6.8;;;4.0;;
77748;SDS011;66938;52.084;5.228;2023-04-19T08:22:48;5.8;;;4.1;;
77748;SDS011;66938;52.084;5.228;2023-04-19T08:24:24;5.9;;;3.9;;
77748;SDS011;66938;52.084;5.228;2023-04-19T08:27:36;8.2;;;3.9;;
77748;SDS011;66938;52.084;5.228;2023-04-19T08:29:12;5.2;;;3.7;;
77748;SDS011;66938;52.084;5.228;2023-04-19T08:30:48;4.3;;;3.6;;
77748;SDS011;66938;52.084;5.228;2023-04-19T08:34:01;6.3;;;4.0;;
77748;SDS011;66938;52.084;5.228;2023-04-19T08:35:37;7.9;;;4.0;;
77748;SDS011;66938;52.084;5.228;2023-04-19T08:37:14;5.9;;;3.7;;
77748;SDS011;66938;52.084;5.228;2023-04-19T08:40:26;5.11;;;3.8;;
77748;SDS011;66938;52.084;5.228;2023-04-19T08:42:06;5.3;;;3.6;;
77748;SDS011;66938;52.084;5.228;2023-04-19T08:43:43;4.61;;;3.2;;
77748;SDS011;66938;52.084;5.228;2023-04-19T08:45:23;5.5;;;3.6;;
77748;SDS011;66938;52.084;5.228;2023-04-19T08:48:39;5.4;;;3.4;;
77748;SDS011;66938;52.084;5.228;2023-04-19T08:50:16;6.6;;;3.6;;
77748;SDS011;66938;52.084;5.228;2023-04-19T08:51:56;6.3;;;3.5;;
77748;SDS011;66938;52.084;5.228;2023-04-19T08:55:09;4.7;;;3.7;;
77748;SDS011;66938;52.084;5.228;2023-04-19T08:56:45;5.3;;;3.4;;
77748;SDS011;66938;52.084;5.228;2023-04-19T08:58:22;6.1;;;3.9;;
77748;SDS011;66938;52.084;5.228;2023-04-19T08:59:58;10.21;;;7.0;;
77748;SDS011;66938;52.084;5.228;2023-04-19T09:03:11;8.71;;;5.4;;
77748;SDS011;66938;52.084;5.228;2023-04-19T09:04:47;10.1;;;7.4;;
77748;SDS011;66938;52.084;5.228;2023-04-19T09:06:23;6.5;;;4.7;;
77748;SDS011;66938;52.084;5.228;2023-04-19T09:10:03;5.2;;;3.8;;
77748;SDS011;66938;52.084;5.228;2023-04-19T09:11:41;5.6;;;3.4;;
77748;SDS011;66938;52.084;5.228;2023-04-19T09:13:17;5.9;;;3.5;;
77748;SDS011;66938;52.084;5.228;2023-04-19T09:14:53;6.2;;;2.9;;
77748;SDS011;66938;52.084;5.228;2023-04-19T09:18:06;5.0;;;2.8;;
77748;SDS011;66938;52.084;5.228;2023-04-19T09:19:44;6.7;;;3.1;;
77748;SDS011;66938;52.084;5.228;2023-04-19T09:21:29;4.7;;;2.31;;
77748;SDS011;66938;52.084;5.228;2023-04-19T09:23:06;3.0;;;2.21;;
77748;SDS011;66938;52.084;5.228;2023-04-19T09:26:21;4.3;;;2.31;;
77748;SDS011;66938;52.084;5.228;2023-04-19T09:28:07;4.0;;;2.7;;
77748;SDS011;66938;52.084;5.228;2023-04-19T09:29:51;3.0;;;2.31;;
77748;SDS011;66938;52.084;5.228;2023-04-19T09:31:28;4.5;;;2.4;;
77748;SDS011;66938;52.084;5.228;2023-04-19T09:34:49;8.31;;;2.0;;
77748;SDS011;66938;52.084;5.228;2023-04-19T09:36:27;3.6;;;2.1;;
77748;SDS011;66938;52.084;5.228;2023-04-19T09:38:04;4.5;;;1.8;;
77748;SDS011;66938;52.084;5.228;2023-04-19T09:39:41;3.3;;;1.7;;
77748;SDS011;66938;52.084;5.228;2023-04-19T09:42:53;3.0;;;1.8;;
77748;SDS011;66938;52.084;5.228;2023-04-19T09:44:29;3.2;;;1.8;;
77748;SDS011;66938;52.084;5.228;2023-04-19T09:46:05;4.0;;;1.6;;
77748;SDS011;66938;52.084;5.228;2023-04-19T09:49:18;3.3;;;1.7;;
77748;SDS011;66938;52.084;5.228;2023-04-19T09:50:57;3.4;;;1.8;;
77748;SDS011;66938;52.084;5.228;2023-04-19T09:52:35;3.2;;;1.8;;
77748;SDS011;66938;52.084;5.228;2023-04-19T09:55:50;3.5;;;1.8;;
77748;SDS011;66938;52.084;5.228;2023-04-19T09:57:27;4.41;;;1.9;;
77748;SDS011;66938;52.084;5.228;2023-04-19T09:59:03;3.3;;;1.8;;
77748;SDS011;66938;52.084;5.228;2023-04-19T10:00:40;3.5;;;2.1;;
77748;SDS011;66938;52.084;5.228;2023-04-19T10:03:57;4.2;;;2.1;;
77748;SDS011;66938;52.084;5.228;2023-04-19T10:05:35;3.4;;;1.8;;
77748;SDS011;66938;52.084;5.228;2023-04-19T10:07:13;4.7;;;2.21;;
77748;SDS011;66938;52.084;5.228;2023-04-19T10:10:29;4.0;;;2.1;;
77748;SDS011;66938;52.084;5.228;2023-04-19T10:12:07;3.3;;;1.9;;
77748;SDS011;66938;52.084;5.228;2023-04-19T10:13:43;3.2;;;1.9;;
77748;SDS011;66938;52.084;5.228;2023-04-19T10:15:22;3.1;;;2.0;;
77748;SDS011;66938;52.084;5.228;2023-04-19T10:18:37;3.3;;;1.9;;
77748;SDS011;66938;52.084;5.228;2023-04-19T10:20:16;3.4;;;2.21;;
77748;SDS011;66938;52.084;5.228;2023-04-19T10:21:57;4.1;;;2.0;;
77748;SDS011;66938;52.084;5.228;2023-04-19T10:25:11;4.61;;;2.1;;
77748;SDS011;66938;52.084;5.228;2023-04-19T10:27:20;3.6;;;2.31;;
77748;SDS011;66938;52.084;5.228;2023-04-19T10:29:00;2.9;;;1.9;;
77748;SDS011;66938;52.084;5.228;2023-04-19T10:30:36;3.9;;;2.21;;
77748;SDS011;66938;52.084;5.228;2023-04-19T10:32:28;4.2;;;2.31;;
77748;SDS011;66938;52.084;5.228;2023-04-19T10:34:12;3.0;;;2.1;;
77748;SDS011;66938;52.084;5.228;2023-04-19T10:37:25;3.5;;;2.21;;
77748;SDS011;66938;52.084;5.228;2023-04-19T10:39:01;3.7;;;2.31;;
77748;SDS011;66938;52.084;5.228;2023-04-19T10:40:54;4.8;;;1.9;;
77748;SDS011;66938;52.084;5.228;2023-04-19T10:43:36;4.0;;;2.1;;
77748;SDS011;66938;52.084;5.228;2023-04-19T10:45:45;4.1;;;2.1;;
77748;SDS011;66938;52.084;5.228;2023-04-19T10:47:39;2.6;;;1.9;;
77748;SDS011;66938;52.084;5.228;2023-04-19T10:49:16;2.21;;;1.7;;
77748;SDS011;66938;52.084;5.228;2023-04-19T10:50:56;3.3;;;1.9;;
77748;SDS011;66938;52.084;5.228;2023-04-19T10:54:26;2.9;;;1.8;;
77748;SDS011;66938;52.084;5.228;2023-04-19T10:56:03;3.5;;;2.0;;
77748;SDS011;66938;52.084;5.228;2023-04-19T10:58:11;3.5;;;1.9;;
77748;SDS011;66938;52.084;5.228;2023-04-19T10:59:48;3.1;;;1.7;;
77748;SDS011;66938;52.084;5.228;2023-04-19T11:01:53;3.6;;;1.9;;
77748;SDS011;66938;52.084;5.228;2023-04-19T11:04:03;3.3;;;2.0;;
77748;SDS011;66938;52.084;5.228;2023-04-19T11:06:07;3.0;;;2.0;;
77748;SDS011;66938;52.084;5.228;2023-04-19T11:11:05;2.4;;;1.9;;
77748;SDS011;66938;52.084;5.228;2023-04-19T11:12:42;4.0;;;2.1;;
77748;SDS011;66938;52.084;5.228;2023-04-19T11:14:19;4.5;;;2.21;;
77748;SDS011;66938;52.084;5.228;2023-04-19T11:15:57;5.0;;;2.4;;
77748;SDS011;66938;52.084;5.228;2023-04-19T11:19:09;4.3;;;2.21;;
77748;SDS011;66938;52.084;5.228;2023-04-19T11:20:45;4.3;;;2.21;;
77748;SDS011;66938;52.084;5.228;2023-04-19T11:22:29;3.7;;;2.0;;
77748;SDS011;66938;52.084;5.228;2023-04-19T11:25:43;4.2;;;1.9;;
77748;SDS011;66938;52.084;5.228;2023-04-19T11:27:20;3.0;;;2.31;;
77748;SDS011;66938;52.084;5.228;2023-04-19T11:28:57;2.9;;;1.7;;
77748;SDS011;66938;52.084;5.228;2023-04-19T11:30:33;3.7;;;2.21;;
77748;SDS011;66938;52.084;5.228;2023-04-19T11:33:46;3.3;;;1.8;;
77748;SDS011;66938;52.084;5.228;2023-04-19T11:35:23;3.6;;;2.0;;
77748;SDS011;66938;52.084;5.228;2023-04-19T11:37:00;2.8;;;1.9;;
77748;SDS011;66938;52.084;5.228;2023-04-19T11:40:13;4.0;;;1.9;;
77748;SDS011;66938;52.084;5.228;2023-04-19T11:41:51;3.6;;;2.21;;
77748;SDS011;66938;52.084;5.228;2023-04-19T11:43:31;4.91;;;2.1;;
77748;SDS011;66938;52.084;5.228;2023-04-19T11:47:02;3.8;;;2.0;;
77748;SDS011;66938;52.084;5.228;2023-04-19T11:48:49;3.2;;;2.0;;
77748;SDS011;66938;52.084;5.228;2023-04-19T11:50:30;3.6;;;1.9;;
77748;SDS011;66938;52.084;5.228;2023-04-19T11:52:08;4.1;;;2.21;;
77748;SDS011;66938;52.084;5.228;2023-04-19T11:53:45;3.5;;;2.21;;
77748;SDS011;66938;52.084;5.228;2023-04-19T11:56:58;2.8;;;2.1;;
77748;SDS011;66938;52.084;5.228;2023-04-19T11:58:38;5.5;;;2.5;;
77748;SDS011;66938;52.084;5.228;2023-04-19T12:00:17;3.8;;;2.1;;
77748;SDS011;66938;52.084;5.228;2023-04-19T12:02:06;3.7;;;2.31;;
77748;SDS011;66938;52.084;5.228;2023-04-19T12:05:22;3.9;;;2.31;;
77748;SDS011;66938;52.084;5.228;2023-04-19T12:06:58;4.0;;;2.31;;
77748;SDS011;66938;52.084;5.228;2023-04-19T12:08:38;3.6;;;2.1;;
77748;SDS011;66938;52.084;5.228;2023-04-19T12:10:19;3.8;;;2.21;;
77748;SDS011;66938;52.084;5.228;2023-04-19T12:13:31;4.41;;;2.21;;
77748;SDS011;66938;52.084;5.228;2023-04-19T12:15:09;4.91;;;2.21;;
77748;SDS011;66938;52.084;5.228;2023-04-19T12:16:45;4.41;;;2.21;;
77748;SDS011;66938;52.084;5.228;2023-04-19T12:18:41;4.41;;;2.21;;
77748;SDS011;66938;52.084;5.228;2023-04-19T12:22:07;3.2;;;2.21;;
77748;SDS011;66938;52.084;5.228;2023-04-19T12:23:46;5.4;;;2.5;;
77748;SDS011;66938;52.084;5.228;2023-04-19T12:25:26;4.2;;;2.0;;
77748;SDS011;66938;52.084;5.228;2023-04-19T12:27:04;4.3;;;2.4;;
77748;SDS011;66938;52.084;5.228;2023-04-19T12:30:17;4.7;;;2.5;;
77748;SDS011;66938;52.084;5.228;2023-04-19T12:31:53;4.0;;;2.4;;
77748;SDS011;66938;52.084;5.228;2023-04-19T12:33:29;3.4;;;2.21;;
77748;SDS011;66938;52.084;5.228;2023-04-19T12:36:42;4.8;;;2.21;;
77748;SDS011;66938;52.084;5.228;2023-04-19T12:38:18;3.7;;;2.4;;
77748;SDS011;66938;52.084;5.228;2023-04-19T12:39:54;4.61;;;2.21;;
77748;SDS011;66938;52.084;5.228;2023-04-19T12:43:07;4.8;;;2.31;;
77748;SDS011;66938;52.084;5.228;2023-04-19T12:44:43;3.4;;;2.4;;
77748;SDS011;66938;52.084;5.228;2023-04-19T12:46:19;4.5;;;2.21;;
77748;SDS011;66938;52.084;5.228;2023-04-19T12:47:55;3.7;;;2.31;;
77748;SDS011;66938;52.084;5.228;2023-04-19T12:51:08;4.7;;;2.4;;
77748;SDS011;66938;52.084;5.228;2023-04-19T12:52:44;3.4;;;2.6;;